Time,TemperatureF,DewpointF,PressureIn,WindDirection,WindDirectionDegrees,WindSpeedMPH,WindSpeedGustMPH,Humidity,HourlyPrecipIn,Conditions,Clouds,dailyrainin,SoftwareType,DateUTC
2013-03-23 00:02:00,17.0,6.0,-100.00,NNW,340,6.0,12.0,61,-99.99,,,-99.99,,2013-03-23 07:02:00,
2013-03-23 00:12:00,17.0,7.0,-100.00,NNW,339,5.0,9.0,63,-99.99,,,-99.99,,2013-03-23 07:12:00,
2013-03-23 00:22:00,17.0,7.0,-100.00,NNW,339,5.0,10.0,63,-99.99,,,-99.99,,2013-03-23 07:22:00,
2013-03-23 00:32:00,17.0,7.0,-100.00,NNW,333,4.0,10.0,63,-99.99,,,-99.99,,2013-03-23 07:32:00,
2013-03-23 00:42:00,17.0,7.0,-100.00,NNW,332,5.0,10.0,63,-99.99,,,-99.99,,2013-03-23 07:42:00,
2013-03-23 00:52:00,17.0,7.0,-100.00,NNW,332,6.0,10.0,64,-99.99,,,-99.99,,2013-03-23 07:52:00,
2013-03-23 01:02:00,17.0,7.0,-100.00,NNW,333,5.0,12.0,65,-99.99,,,-99.99,,2013-03-23 08:02:00,
2013-03-23 01:12:00,17.0,8.0,-100.00,NNW,333,8.0,14.0,68,-99.99,,,-99.99,,2013-03-23 08:12:00,
2013-03-23 01:22:00,17.0,8.0,-100.00,NNW,333,8.0,14.0,68,-99.99,,,-99.99,,2013-03-23 08:22:00,
2013-03-23 01:32:00,16.0,8.0,-100.00,North,349,6.0,12.0,70,-99.99,,,-99.99,,2013-03-23 08:32:00,
2013-03-23 01:42:00,16.0,9.0,-100.00,NNW,329,5.0,10.0,74,-99.99,,,-99.99,,2013-03-23 08:42:00,
2013-03-23 01:52:00,16.0,10.0,-100.00,NW,320,7.0,12.0,76,-99.99,,,-99.99,,2013-03-23 08:52:00,
2013-03-23 02:02:00,16.0,11.0,-100.00,NW,326,5.0,9.0,78,-99.99,,,-99.99,,2013-03-23 09:02:00,
2013-03-23 02:12:00,16.0,11.0,-100.00,NNW,347,6.0,13.0,79,-99.99,,,-99.99,,2013-03-23 09:12:00,
2013-03-23 02:22:00,16.0,11.0,-100.00,North,6,7.0,13.0,81,-99.99,,,-99.99,,2013-03-23 09:22:00,
2013-03-23 02:32:00,15.0,11.0,-100.00,North,3,8.0,13.0,84,-99.99,,,-99.99,,2013-03-23 09:32:00,
2013-03-23 02:42:00,15.0,11.0,-100.00,North,350,6.0,11.0,82,-99.99,,,-99.99,,2013-03-23 09:42:00,
2013-03-23 02:52:00,15.0,9.0,-100.00,NNW,340,10.0,16.0,74,-99.99,,,-99.99,,2013-03-23 09:52:00,
2013-03-23 03:03:00,15.0,8.0,-100.00,NNW,337,7.0,14.0,72,-99.99,,,-99.99,,2013-03-23 10:03:00,
2013-03-23 03:12:00,15.0,7.0,-100.00,NNW,336,7.0,12.0,71,-99.99,,,-99.99,,2013-03-23 10:12:00,
2013-03-23 03:23:00,15.0,7.0,-100.00,NNW,339,8.0,15.0,70,-99.99,,,-99.99,,2013-03-23 10:23:00,
2013-03-23 03:33:00,15.0,6.0,-100.00,NNW,342,8.0,15.0,68,-99.99,,,-99.99,,2013-03-23 10:33:00,
2013-03-23 03:42:00,14.0,6.0,-100.00,NNW,339,6.0,14.0,69,-99.99,,,-99.99,,2013-03-23 10:42:00,
2013-03-23 03:52:00,14.0,6.0,-100.00,NNW,337,6.0,11.0,69,-99.99,,,-99.99,,2013-03-23 10:52:00,
2013-03-23 04:02:00,14.0,5.0,-100.00,NW,323,7.0,17.0,67,-99.99,,,-99.99,,2013-03-23 11:02:00,
2013-03-23 04:12:00,14.0,5.0,-100.00,NW,322,7.0,17.0,67,-99.99,,,-99.99,,2013-03-23 11:12:00,
2013-03-23 04:22:00,14.0,5.0,-100.00,NW,322,7.0,17.0,67,-99.99,,,-99.99,,2013-03-23 11:22:00,
2013-03-23 04:32:00,14.0,5.0,-100.00,NW,320,7.0,12.0,66,-99.99,,,-99.99,,2013-03-23 11:32:00,
2013-03-23 04:42:00,14.0,4.0,-100.00,NW,326,6.0,12.0,65,-99.99,,,-99.99,,2013-03-23 11:42:00,
2013-03-23 04:51:00,13.0,4.0,-100.00,NNW,335,5.0,12.0,66,-99.99,,,-99.99,,2013-03-23 11:51:00,
2013-03-23 05:02:00,13.0,4.0,-100.00,NNW,340,5.0,8.0,65,-99.99,,,-99.99,,2013-03-23 12:02:00,
2013-03-23 05:12:00,13.0,3.0,-100.00,North,350,8.0,15.0,63,-99.99,,,-99.99,,2013-03-23 12:12:00,
2013-03-23 05:22:00,13.0,3.0,-100.00,North,350,8.0,15.0,63,-99.99,,,-99.99,,2013-03-23 12:22:00,
2013-03-23 05:33:00,13.0,3.0,-100.00,North,10,5.0,10.0,65,-99.99,,,-99.99,,2013-03-23 12:33:00,
2013-03-23 05:42:00,13.0,3.0,-100.00,NNE,23,4.0,7.0,65,-99.99,,,-99.99,,2013-03-23 12:42:00,
2013-03-23 05:52:00,13.0,2.0,-100.00,NNE,13,6.0,11.0,63,-99.99,,,-99.99,,2013-03-23 12:52:00,
2013-03-23 06:02:00,12.0,3.0,-100.00,North,359,6.0,11.0,64,-99.99,,,-99.99,,2013-03-23 13:02:00,
2013-03-23 06:12:00,12.0,2.0,-100.00,North,360,4.0,8.0,64,-99.99,,,-99.99,,2013-03-23 13:12:00,
2013-03-23 06:22:00,11.0,3.0,-100.00,North,350,2.0,6.0,67,-99.99,,,-99.99,,2013-03-23 13:22:00,
2013-03-23 06:42:00,12.0,2.0,-100.00,NE,35,4.0,10.0,64,-99.99,,,-99.99,,2013-03-23 13:42:00,
2013-03-23 06:53:00,12.0,2.0,-100.00,NE,35,4.0,10.0,64,-99.99,,,-99.99,,2013-03-23 13:53:00,
2013-03-23 07:03:00,12.0,2.0,-100.00,NNE,23,5.0,9.0,63,-99.99,,,-99.99,,2013-03-23 14:03:00,
2013-03-23 07:12:00,11.0,2.0,-100.00,NNE,28,4.0,7.0,65,-99.99,,,-99.99,,2013-03-23 14:12:00,
2013-03-23 07:22:00,11.0,2.0,-100.00,North,356,2.0,6.0,67,-99.99,,,-99.99,,2013-03-23 14:22:00,
2013-03-23 07:32:00,10.0,2.0,-100.00,NW,309,0.0,3.0,70,-99.99,,,-99.99,,2013-03-23 14:32:00,
2013-03-23 07:42:00,11.0,3.0,-100.00,West,268,3.0,6.0,69,-99.99,,,-99.99,,2013-03-23 14:42:00,
2013-03-23 07:52:00,12.0,3.0,-100.00,WNW,291,4.0,9.0,68,-99.99,,,-99.99,,2013-03-23 14:52:00,
2013-03-23 08:02:00,13.0,3.0,-100.00,NW,322,3.0,6.0,65,-99.99,,,-99.99,,2013-03-23 15:02:00,
2013-03-23 08:12:00,13.0,3.0,-100.00,NNW,346,4.0,8.0,66,-99.99,,,-99.99,,2013-03-23 15:12:00,
2013-03-23 08:22:00,13.0,4.0,-100.00,WNW,294,5.0,14.0,66,-99.99,,,-99.99,,2013-03-23 15:22:00,
2013-03-23 08:33:00,14.0,3.0,-100.00,NW,309,7.0,14.0,62,-99.99,,,-99.99,,2013-03-23 15:33:00,
2013-03-23 08:43:00,14.0,3.0,-100.00,NNW,342,7.0,13.0,62,-99.99,,,-99.99,,2013-03-23 15:43:00,
2013-03-23 08:52:00,14.0,4.0,-100.00,NNW,333,7.0,12.0,62,-99.99,,,-99.99,,2013-03-23 15:52:00,
2013-03-23 09:03:00,14.0,3.0,-100.00,NNW,340,8.0,13.0,61,-99.99,,,-99.99,,2013-03-23 16:03:00,
2013-03-23 09:12:00,15.0,3.0,-100.00,North,4,5.0,10.0,58,-99.99,,,-99.99,,2013-03-23 16:12:00,
2013-03-23 09:22:00,15.0,3.0,-100.00,North,4,5.0,10.0,58,-99.99,,,-99.99,,2013-03-23 16:22:00,
2013-03-23 09:32:00,16.0,2.0,-100.00,North,10,6.0,13.0,53,-99.99,,,-99.99,,2013-03-23 16:32:00,
2013-03-23 09:42:00,16.0,2.0,-100.00,NNE,16,5.0,13.0,53,-99.99,,,-99.99,,2013-03-23 16:42:00,
2013-03-23 09:53:00,17.0,2.0,-100.00,North,0,5.0,13.0,50,-99.99,,,-99.99,,2013-03-23 16:53:00,
2013-03-23 10:02:00,17.0,1.0,-100.00,NNW,344,9.0,15.0,49,-99.99,,,-99.99,,2013-03-23 17:02:00,
2013-03-23 10:12:00,17.0,1.0,-100.00,NNW,328,9.0,16.0,48,-99.99,,,-99.99,,2013-03-23 17:12:00,
2013-03-23 10:22:00,18.0,1.0,-100.00,NNW,342,9.0,16.0,46,-99.99,,,-99.99,,2013-03-23 17:22:00,
2013-03-23 10:32:00,18.0,1.0,-100.00,North,349,9.0,17.0,46,-99.99,,,-99.99,,2013-03-23 17:32:00,
2013-03-23 10:42:00,19.0,1.0,-100.00,NW,312,9.0,18.0,45,-99.99,,,-99.99,,2013-03-23 17:42:00,
2013-03-23 10:53:00,19.0,-1.0,-100.00,NNW,340,7.0,17.0,42,-99.99,,,-99.99,,2013-03-23 17:53:00,
2013-03-23 11:02:00,19.0,-1.0,-100.00,NNW,340,7.0,17.0,42,-99.99,,,-99.99,,2013-03-23 18:02:00,
2013-03-23 11:12:00,20.0,-1.0,-100.00,NW,323,6.0,12.0,40,-99.99,,,-99.99,,2013-03-23 18:12:00,
2013-03-23 11:22:00,21.0,0.0,-100.00,West,278,6.0,12.0,39,-99.99,,,-99.99,,2013-03-23 18:22:00,
2013-03-23 11:32:00,21.0,-2.0,-100.00,NW,323,8.0,14.0,36,-99.99,,,-99.99,,2013-03-23 18:32:00,
2013-03-23 11:42:00,21.0,-3.0,-100.00,NNE,13,8.0,17.0,34,-99.99,,,-99.99,,2013-03-23 18:42:00,
2013-03-23 11:53:00,21.0,-5.0,-100.00,North,0,6.0,15.0,31,-99.99,,,-99.99,,2013-03-23 18:53:00,
2013-03-23 12:02:00,22.0,-5.0,-100.00,NW,308,6.0,18.0,30,-99.99,,,-99.99,,2013-03-23 19:02:00,
2013-03-23 12:12:00,23.0,-6.0,-100.00,NW,308,7.0,15.0,28,-99.99,,,-99.99,,2013-03-23 19:12:00,
2013-03-23 12:22:00,23.0,-4.0,-100.00,NW,320,5.0,14.0,30,-99.99,,,-99.99,,2013-03-23 19:22:00,
2013-03-23 12:32:00,22.0,-7.0,-100.00,North,352,7.0,15.0,26,-99.99,,,-99.99,,2013-03-23 19:32:00,
2013-03-23 12:42:00,24.0,-5.0,-100.00,NNE,28,4.0,10.0,27,-99.99,,,-99.99,,2013-03-23 19:42:00,
2013-03-23 12:52:00,24.0,-5.0,-100.00,NNE,20,5.0,14.0,27,-99.99,,,-99.99,,2013-03-23 19:52:00,
2013-03-23 13:02:00,25.0,-5.0,-100.00,NNW,343,6.0,17.0,27,-99.99,,,-99.99,,2013-03-23 20:02:00,
2013-03-23 13:12:00,26.0,-3.0,-100.00,NE,37,6.0,13.0,27,-99.99,,,-99.99,,2013-03-23 20:12:00,
2013-03-23 13:22:00,26.0,-5.0,-100.00,North,6,4.0,10.0,25,-99.99,,,-99.99,,2013-03-23 20:22:00,
2013-03-23 13:32:00,25.0,-8.0,-100.00,WNW,298,7.0,12.0,23,-99.99,,,-99.99,,2013-03-23 20:32:00,
2013-03-23 13:42:00,26.0,-5.0,-100.00,WNW,285,7.0,14.0,25,-99.99,,,-99.99,,2013-03-23 20:42:00,
2013-03-23 13:52:00,27.0,-10.0,-100.00,North,7,4.0,10.0,19,-99.99,,,-99.99,,2013-03-23 20:52:00,
2013-03-23 14:02:00,27.0,-10.0,-100.00,WNW,301,6.0,13.0,19,-99.99,,,-99.99,,2013-03-23 21:02:00,
2013-03-23 14:12:00,27.0,-9.0,-100.00,NW,316,6.0,13.0,19,-99.99,,,-99.99,,2013-03-23 21:12:00,
2013-03-23 14:22:00,28.0,-7.0,-100.00,NNE,25,5.0,20.0,21,-99.99,,,-99.99,,2013-03-23 21:22:00,
2013-03-23 14:32:00,29.0,-7.0,-100.00,North,357,4.0,11.0,20,-99.99,,,-99.99,,2013-03-23 21:32:00,
2013-03-23 14:43:00,29.0,-7.0,-100.00,NW,306,7.0,14.0,20,-99.99,,,-99.99,,2013-03-23 21:43:00,
2013-03-23 14:53:00,28.0,-6.0,-100.00,NNW,328,8.0,16.0,22,-99.99,,,-99.99,,2013-03-23 21:53:00,
2013-03-23 15:02:00,28.0,-5.0,-100.00,NNW,347,8.0,13.0,23,-99.99,,,-99.99,,2013-03-23 22:02:00,
2013-03-23 15:12:00,30.0,-4.0,-100.00,WNW,294,7.0,15.0,23,-99.99,,,-99.99,,2013-03-23 22:12:00,
2013-03-23 15:23:00,30.0,-3.0,-100.00,WSW,253,6.0,12.0,23,-99.99,,,-99.99,,2013-03-23 22:23:00,
2013-03-23 15:32:00,31.0,-3.0,-100.00,West,268,5.0,10.0,22,-99.99,,,-99.99,,2013-03-23 22:32:00,
2013-03-23 15:42:00,31.0,-1.0,-100.00,West,277,5.0,11.0,24,-99.99,,,-99.99,,2013-03-23 22:42:00,
2013-03-23 15:53:00,31.0,-1.0,-100.00,WSW,243,6.0,13.0,24,-99.99,,,-99.99,,2013-03-23 22:53:00,
2013-03-23 16:02:00,31.0,0.0,-100.00,West,264,7.0,15.0,26,-99.99,,,-99.99,,2013-03-23 23:02:00,
2013-03-23 16:12:00,32.0,-2.0,-100.00,WSW,239,6.0,13.0,23,-99.99,,,-99.99,,2013-03-23 23:12:00,
2013-03-23 16:22:00,30.0,-3.0,-100.00,WSW,253,8.0,15.0,23,-99.99,,,-99.99,,2013-03-23 23:22:00,
2013-03-23 16:32:00,30.0,-7.0,-100.00,West,263,8.0,15.0,19,-99.99,,,-99.99,,2013-03-23 23:32:00,
2013-03-23 16:42:00,30.0,-8.0,-100.00,SSW,212,6.0,13.0,18,-99.99,,,-99.99,,2013-03-23 23:42:00,
2013-03-23 16:52:00,30.0,-7.0,-100.00,SW,224,8.0,15.0,19,-99.99,,,-99.99,,2013-03-23 23:52:00,
2013-03-23 17:02:00,31.0,-4.0,-100.00,SSW,212,7.0,14.0,21,-99.99,,,-99.99,,2013-03-24 00:02:00,
2013-03-23 17:12:00,31.0,-6.0,-100.00,WSW,258,7.0,17.0,19,-99.99,,,-99.99,,2013-03-24 00:12:00,
2013-03-23 17:22:00,31.0,-6.0,-100.00,West,264,6.0,11.0,19,-99.99,,,-99.99,,2013-03-24 00:22:00,
2013-03-23 17:32:00,32.0,-6.0,-100.00,West,263,4.0,9.0,19,-99.99,,,-99.99,,2013-03-24 00:32:00,
2013-03-23 17:42:00,32.0,-6.0,-100.00,West,263,4.0,9.0,19,-99.99,,,-99.99,,2013-03-24 00:42:00,
2013-03-23 17:52:00,31.0,-3.0,-100.00,West,281,6.0,13.0,22,-99.99,,,-99.99,,2013-03-24 00:52:00,
2013-03-23 18:02:00,31.0,-8.0,-100.00,West,270,6.0,13.0,18,-99.99,,,-99.99,,2013-03-24 01:02:00,
2013-03-23 18:12:00,31.0,-8.0,-100.00,West,270,6.0,13.0,18,-99.99,,,-99.99,,2013-03-24 01:12:00,
2013-03-23 18:22:00,30.0,-8.0,-100.00,WNW,282,8.0,15.0,18,-99.99,,,-99.99,,2013-03-24 01:22:00,
2013-03-23 18:32:00,31.0,-6.0,-100.00,WSW,257,6.0,11.0,20,-99.99,,,-99.99,,2013-03-24 01:32:00,
2013-03-23 18:42:00,30.0,-8.0,-100.00,WSW,250,6.0,9.0,18,-99.99,,,-99.99,,2013-03-24 01:42:00,
2013-03-23 18:52:00,30.0,-6.0,-100.00,WSW,243,4.0,7.0,20,-99.99,,,-99.99,,2013-03-24 01:52:00,
2013-03-23 19:02:00,30.0,-6.0,-100.00,West,263,3.0,6.0,20,-99.99,,,-99.99,,2013-03-24 02:02:00,
2013-03-23 19:12:00,30.0,-5.0,-100.00,NNW,335,4.0,7.0,21,-99.99,,,-99.99,,2013-03-24 02:12:00,
2013-03-23 19:21:00,30.0,-4.0,-100.00,NNW,347,3.0,6.0,22,-99.99,,,-99.99,,2013-03-24 02:21:00,
2013-03-23 19:32:00,30.0,-4.0,-100.00,North,357,6.0,9.0,23,-99.99,,,-99.99,,2013-03-24 02:32:00,
2013-03-23 19:42:00,29.0,-5.0,-100.00,North,3,6.0,10.0,22,-99.99,,,-99.99,,2013-03-24 02:42:00,
2013-03-23 19:52:00,29.0,-2.0,-100.00,North,354,6.0,9.0,25,-99.99,,,-99.99,,2013-03-24 02:52:00,
2013-03-23 20:02:00,29.0,-2.0,-100.00,North,359,6.0,11.0,25,-99.99,,,-99.99,,2013-03-24 03:02:00,
2013-03-23 20:12:00,29.0,-5.0,-100.00,NNW,343,6.0,11.0,22,-99.99,,,-99.99,,2013-03-24 03:12:00,
2013-03-23 20:22:00,29.0,-5.0,-100.00,NNW,337,5.0,10.0,22,-99.99,,,-99.99,,2013-03-24 03:22:00,
2013-03-23 20:33:00,29.0,-4.0,-100.00,North,352,5.0,12.0,23,-99.99,,,-99.99,,2013-03-24 03:33:00,
2013-03-23 20:42:00,29.0,-1.0,-100.00,NNW,333,7.0,12.0,27,-99.99,,,-99.99,,2013-03-24 03:42:00,
2013-03-23 20:52:00,29.0,-1.0,-100.00,NNW,333,7.0,12.0,27,-99.99,,,-99.99,,2013-03-24 03:52:00,
2013-03-23 21:02:00,30.0,1.0,-100.00,WNW,282,7.0,13.0,29,-99.99,,,-99.99,,2013-03-24 04:02:00,
2013-03-23 21:12:00,29.0,-3.0,-100.00,NNW,340,5.0,8.0,24,-99.99,,,-99.99,,2013-03-24 04:12:00,
2013-03-23 21:22:00,29.0,-1.0,-100.00,North,4,3.0,7.0,26,-99.99,,,-99.99,,2013-03-24 04:22:00,
2013-03-23 21:32:00,29.0,-1.0,-100.00,North,352,3.0,5.0,26,-99.99,,,-99.99,,2013-03-24 04:32:00,
2013-03-23 21:42:00,29.0,-1.0,-100.00,North,352,3.0,5.0,26,-99.99,,,-99.99,,2013-03-24 04:42:00,
2013-03-23 21:53:00,29.0,0.0,-100.00,NNE,23,4.0,7.0,28,-99.99,,,-99.99,,2013-03-24 04:53:00,
2013-03-23 22:02:00,29.0,1.0,-100.00,NW,323,4.0,11.0,29,-99.99,,,-99.99,,2013-03-24 05:02:00,
2013-03-23 22:12:00,29.0,2.0,-100.00,NW,315,4.0,13.0,30,-99.99,,,-99.99,,2013-03-24 05:12:00,
2013-03-23 22:22:00,29.0,2.0,-100.00,NW,315,4.0,13.0,30,-99.99,,,-99.99,,2013-03-24 05:22:00,
2013-03-23 22:32:00,29.0,1.0,-100.00,West,274,1.0,5.0,30,-99.99,,,-99.99,,2013-03-24 05:32:00,
2013-03-23 22:42:00,29.0,3.0,-100.00,NW,309,2.0,7.0,33,-99.99,,,-99.99,,2013-03-24 05:42:00,
2013-03-23 22:52:00,28.0,0.0,-100.00,North,349,7.0,12.0,30,-99.99,,,-99.99,,2013-03-24 05:52:00,
2013-03-23 23:02:00,27.0,-1.0,-100.00,North,349,6.0,9.0,28,-99.99,,,-99.99,,2013-03-24 06:02:00,
2013-03-23 23:12:00,27.0,0.0,-100.00,North,357,4.0,6.0,30,-99.99,,,-99.99,,2013-03-24 06:12:00,
2013-03-23 23:22:00,27.0,1.0,-100.00,NNE,25,2.0,4.0,31,-99.99,,,-99.99,,2013-03-24 06:22:00,
2013-03-23 23:32:00,27.0,2.0,-100.00,ENE,66,2.0,5.0,33,-99.99,,,-99.99,,2013-03-24 06:32:00,
2013-03-23 23:42:00,27.0,2.0,-100.00,ENE,71,4.0,6.0,34,-99.99,,,-99.99,,2013-03-24 06:42:00,
2013-03-23 23:52:00,27.0,2.0,-100.00,NNE,16,3.0,5.0,33,-99.99,,,-99.99,,2013-03-24 06:52:00,